sensor_id;sensor_type;location;lat;lon;timestamp;pressure;altitude;pressure_sealevel;temperature;humidity
19005;BME280;9635;52.078;8.648;2022-08-04T00:03:04;100215.94;;;23.06;57.31
19005;BME280;9635;52.078;8.648;2022-08-04T00:08:17;100222.44;;;22.10;60.14
19005;BME280;9635;52.078;8.648;2022-08-04T00:13:26;100225.09;;;21.97;61.28
19005;BME280;9635;52.078;8.648;2022-08-04T00:18:34;100221.56;;;21.68;62.09
19005;BME280;9635;52.078;8.648;2022-08-04T00:23:37;100222.31;;;22.31;60.75
19005;BME280;9635;52.078;8.648;2022-08-04T00:29:02;100213.50;;;22.36;60.97
19005;BME280;9635;52.078;8.648;2022-08-04T00:34:05;100217.75;;;22.45;60.79
19005;BME280;9635;52.078;8.648;2022-08-04T00:39:11;100215.25;;;22.57;60.64
19005;BME280;9635;52.078;8.648;2022-08-04T00:44:29;100209.78;;;22.64;60.35
19005;BME280;9635;52.078;8.648;2022-08-04T00:50:03;100211.06;;;22.81;59.79
19005;BME280;9635;52.078;8.648;2022-08-04T00:55:25;100202.66;;;22.83;58.93
19005;BME280;9635;52.078;8.648;2022-08-04T01:00:43;100206.44;;;22.75;59.40
19005;BME280;9635;52.078;8.648;2022-08-04T01:05:56;100209.16;;;22.82;59.26
19005;BME280;9635;52.078;8.648;2022-08-04T01:11:25;100211.06;;;22.81;59.48
19005;BME280;9635;52.078;8.648;2022-08-04T01:17:11;100206.88;;;22.85;59.13
19005;BME280;9635;52.078;8.648;2022-08-04T01:22:49;100203.09;;;22.86;58.61
19005;BME280;9635;52.078;8.648;2022-08-04T01:28:14;100200.97;;;22.75;58.78
19005;BME280;9635;52.078;8.648;2022-08-04T01:33:28;100197.38;;;22.68;59.00
19005;BME280;9635;52.078;8.648;2022-08-04T01:38:53;100192.31;;;22.58;59.55
19005;BME280;9635;52.078;8.648;2022-08-04T01:43:56;100187.47;;;22.53;59.64
19005;BME280;9635;52.078;8.648;2022-08-04T01:49:02;100189.16;;;22.54;59.66
19005;BME280;9635;52.078;8.648;2022-08-04T01:54:08;100194.75;;;22.33;59.74
19005;BME280;9635;52.078;8.648;2022-08-04T01:59:14;100191.13;;;22.19;60.32
19005;BME280;9635;52.078;8.648;2022-08-04T02:04:21;100186.25;;;22.08;60.71
19005;BME280;9635;52.078;8.648;2022-08-04T02:09:30;100180.81;;;22.15;60.77
19005;BME280;9635;52.078;8.648;2022-08-04T02:14:59;100178.00;;;21.95;61.55
19005;BME280;9635;52.078;8.648;2022-08-04T02:20:08;100173.56;;;21.94;61.56
19005;BME280;9635;52.078;8.648;2022-08-04T02:25:13;100166.66;;;21.98;61.80
19005;BME280;9635;52.078;8.648;2022-08-04T02:30:21;100169.84;;;22.08;61.50
19005;BME280;9635;52.078;8.648;2022-08-04T02:35:34;100159.97;;;22.14;60.88
19005;BME280;9635;52.078;8.648;2022-08-04T02:40:39;100155.50;;;21.99;61.51
19005;BME280;9635;52.078;8.648;2022-08-04T02:45:45;100147.66;;;21.83;61.88
19005;BME280;9635;52.078;8.648;2022-08-04T02:50:52;100147.28;;;21.86;62.00
19005;BME280;9635;52.078;8.648;2022-08-04T02:55:57;100139.81;;;21.73;62.09
19005;BME280;9635;52.078;8.648;2022-08-04T03:01:02;100135.78;;;21.69;63.01
19005;BME280;9635;52.078;8.648;2022-08-04T03:06:27;100134.94;;;21.68;63.05
19005;BME280;9635;52.078;8.648;2022-08-04T03:11:55;100124.44;;;21.65;63.18
19005;BME280;9635;52.078;8.648;2022-08-04T03:17:27;100131.97;;;21.57;63.51
19005;BME280;9635;52.078;8.648;2022-08-04T03:22:59;100128.25;;;21.36;64.13
19005;BME280;9635;52.078;8.648;2022-08-04T03:28:38;100133.25;;;21.26;64.40
19005;BME280;9635;52.078;8.648;2022-08-04T03:34:02;100127.47;;;21.08;64.97
19005;BME280;9635;52.078;8.648;2022-08-04T03:45:35;100122.03;;;21.14;64.41
19005;BME280;9635;52.078;8.648;2022-08-04T03:51:26;100119.31;;;21.14;63.80
19005;BME280;9635;52.078;8.648;2022-08-04T03:57:35;100115.97;;;21.19;63.72
19005;BME280;9635;52.078;8.648;2022-08-04T04:14:29;100108.59;;;21.13;63.63
19005;BME280;9635;52.078;8.648;2022-08-04T04:19:53;100117.84;;;21.12;63.51
19005;BME280;9635;52.078;8.648;2022-08-04T04:25:15;100111.09;;;21.14;63.28
19005;BME280;9635;52.078;8.648;2022-08-04T04:30:27;100116.22;;;21.24;62.65
19005;BME280;9635;52.078;8.648;2022-08-04T04:35:37;100113.91;;;21.28;62.54
19005;BME280;9635;52.078;8.648;2022-08-04T04:40:47;100112.03;;;21.28;62.56
19005;BME280;9635;52.078;8.648;2022-08-04T04:46:02;100108.09;;;21.37;62.29
19005;BME280;9635;52.078;8.648;2022-08-04T04:51:18;100107.38;;;21.57;61.44
19005;BME280;9635;52.078;8.648;2022-08-04T04:56:27;100094.59;;;21.71;61.55
19005;BME280;9635;52.078;8.648;2022-08-04T05:07:36;100102.28;;;21.95;60.53
19005;BME280;9635;52.078;8.648;2022-08-04T05:12:55;100096.84;;;22.08;60.83
19005;BME280;9635;52.078;8.648;2022-08-04T05:18:23;100099.59;;;22.28;60.46
19005;BME280;9635;52.078;8.648;2022-08-04T05:23:33;100102.19;;;22.43;60.36
19005;BME280;9635;52.078;8.648;2022-08-04T05:28:40;100097.78;;;22.55;60.05
19005;BME280;9635;52.078;8.648;2022-08-04T05:33:47;100087.66;;;22.56;59.59
19005;BME280;9635;52.078;8.648;2022-08-04T05:38:53;100093.34;;;22.68;59.55
19005;BME280;9635;52.078;8.648;2022-08-04T05:44:01;100086.38;;;22.78;59.22
19005;BME280;9635;52.078;8.648;2022-08-04T05:49:05;100084.28;;;22.81;59.09
19005;BME280;9635;52.078;8.648;2022-08-04T05:54:15;100078.38;;;22.84;58.88
19005;BME280;9635;52.078;8.648;2022-08-04T05:59:22;100077.97;;;22.93;59.04
19005;BME280;9635;52.078;8.648;2022-08-04T06:04:30;100074.78;;;23.10;58.95
19005;BME280;9635;52.078;8.648;2022-08-04T06:09:36;100084.97;;;23.54;57.64
19005;BME280;9635;52.078;8.648;2022-08-04T06:14:42;100074.34;;;23.78;56.63
19005;BME280;9635;52.078;8.648;2022-08-04T06:19:46;100083.31;;;23.98;57.12
19005;BME280;9635;52.078;8.648;2022-08-04T06:25:08;100075.81;;;24.50;55.54
19005;BME280;9635;52.078;8.648;2022-08-04T06:30:13;100075.59;;;24.95;55.06
19005;BME280;9635;52.078;8.648;2022-08-04T06:35:20;100079.34;;;25.01;53.53
19005;BME280;9635;52.078;8.648;2022-08-04T06:40:26;100079.28;;;24.64;53.74
19005;BME280;9635;52.078;8.648;2022-08-04T06:45:36;100074.25;;;24.61;54.17
19005;BME280;9635;52.078;8.648;2022-08-04T06:50:40;100070.97;;;24.71;54.21
19005;BME280;9635;52.078;8.648;2022-08-04T06:56:07;100073.00;;;25.01;53.86
19005;BME280;9635;52.078;8.648;2022-08-04T07:01:12;100066.34;;;25.33;53.02
19005;BME280;9635;52.078;8.648;2022-08-04T07:06:15;100061.31;;;25.49;52.21
19005;BME280;9635;52.078;8.648;2022-08-04T07:11:22;100056.91;;;25.78;51.71
19005;BME280;9635;52.078;8.648;2022-08-04T07:16:29;100053.47;;;25.82;50.59
19005;BME280;9635;52.078;8.648;2022-08-04T07:21:34;100043.38;;;26.25;49.50
19005;BME280;9635;52.078;8.648;2022-08-04T07:26:38;100048.78;;;26.55;49.12
19005;BME280;9635;52.078;8.648;2022-08-04T07:31:42;100049.03;;;27.01;48.29
19005;BME280;9635;52.078;8.648;2022-08-04T07:36:47;100052.34;;;27.38;47.80
19005;BME280;9635;52.078;8.648;2022-08-04T07:41:54;100045.81;;;27.15;47.35
19005;BME280;9635;52.078;8.648;2022-08-04T07:53:50;100052.41;;;28.58;44.49
19005;BME280;9635;52.078;8.648;2022-08-04T08:00:21;100050.16;;;28.71;43.91
19005;BME280;9635;52.078;8.648;2022-08-04T08:05:24;100046.44;;;29.00;44.03
19005;BME280;9635;52.078;8.648;2022-08-04T08:10:27;100044.69;;;29.32;42.79
19005;BME280;9635;52.078;8.648;2022-08-04T08:15:32;100032.00;;;29.80;42.17
19005;BME280;9635;52.078;8.648;2022-08-04T08:20:35;100031.03;;;29.97;41.84
19005;BME280;9635;52.078;8.648;2022-08-04T08:25:38;100028.16;;;30.41;41.13
19005;BME280;9635;52.078;8.648;2022-08-04T08:30:42;100019.91;;;30.83;41.15
19005;BME280;9635;52.078;8.648;2022-08-04T08:35:48;100021.44;;;31.11;39.20
19005;BME280;9635;52.078;8.648;2022-08-04T08:40:58;100022.19;;;31.49;38.82
19005;BME280;9635;52.078;8.648;2022-08-04T08:46:22;100017.56;;;31.86;37.29
19005;BME280;9635;52.078;8.648;2022-08-04T08:52:00;100015.34;;;31.77;37.98
